Cape Bata — V7EF2 — position and weather

sailwx.info

Track history (hours):
 
Tides and Currents Weather Stations Pressure Air Temp Water Temp Dewpoint Dewpoint Depression Visibility Wind Speed Wind Dir Waves Ship Positions

Cape Bata

Last reported at 2014-Oct-30 16:29 UTC. Time now 2014-Oct-31 09:49 UTC.
Position N 46°47' W 125°30'.

Length 274 m; draft 8.7 m.

Type: Tanker. MMSI: 538090162.

Date/timePositionNaut miles runAvg speedWind from/ knotsBaromVisibWave heightAir tempDewpointWater temp
2014-Oct-30 16:29N 46°47' W 125°30'8712.5
2014-Oct-30 09:28N 48°14' W 125°15'1212.9
2014-Oct-30 08:32N 48°25' W 125°07'1212.0
2014-Oct-30 07:33N 48°31' W 124°52'1313.2
2014-Oct-30 06:33N 48°28' W 124°33'1414.4
2014-Oct-30 05:33N 48°22' W 124°13'1514.5
2014-Oct-30 04:32N 48°17' W 123°52'1413.6
2014-Oct-30 03:32N 48°15' W 123°31'8 8.5
2014-Oct-30 02:33N 48°08' W 123°25'0 0.3
2014-Oct-30 01:33N 48°08' W 123°25'0 0.0
2014-Oct-30 00:30N 48°08' W 123°25'0 0.0
2014-Oct-29 23:33N 48°08' W 123°25'0 0.0
2014-Oct-29 22:33N 48°08' W 123°25'0 0.0
2014-Oct-29 21:30N 48°08' W 123°25'0 0.0
2014-Oct-29 20:30N 48°08' W 123°25'0 0.2
2014-Oct-29 19:33N 48°08' W 123°25'7 7.3
2014-Oct-29 18:33N 48°11' W 123°16'1414.6
2014-Oct-29 17:33N 48°20' W 122°59'1313.1
2014-Oct-29 16:33N 48°29' W 122°44'1111.3
2014-Oct-29 15:33N 48°41' W 122°44'1111.0
2014-Oct-29 14:33N 48°52' W 122°46'0 0.1
2014-Oct-29 13:32N 48°52' W 122°45'1 0.0
2014-Oct-28 08:33N 48°50' W 122°45'6 5.9
2014-Oct-28 07:33N 48°45' W 122°45'6 5.8
2014-Oct-28 06:33N 48°40' W 122°41'6 6.5
2014-Oct-28 05:34N 48°36' W 122°33'0 0.1
2014-Oct-28 04:16N 48°36' W 122°33'0 0.0
2014-Oct-28 03:31N 48°36' W 122°33'0 0.0
2014-Oct-28 02:22N 48°36' W 122°33'0 0.0
2014-Oct-28 01:28N 48°36' W 122°33'0 0.0
2014-Oct-28 00:22N 48°36' W 122°33'0 0.0
2014-Oct-27 23:28N 48°36' W 122°33'0 0.0
2014-Oct-27 22:22N 48°36' W 122°33'0 0.0
2014-Oct-27 21:31N 48°36' W 122°33'0 0.1
2014-Oct-27 20:31N 48°36' W 122°33'0 0.0
2014-Oct-27 19:28N 48°36' W 122°33'0 0.0
2014-Oct-27 18:31N 48°36' W 122°33'0 0.0
2014-Oct-27 17:31N 48°36' W 122°33'0 0.0
2014-Oct-27 16:28N 48°36' W 122°33'0 0.0
2014-Oct-27 15:22N 48°36' W 122°33'0 0.1
2014-Oct-27 14:28N 48°36' W 122°33'0 0.1
2014-Oct-27 13:28N 48°36' W 122°33'0 0.0
2014-Oct-27 12:22N 48°36' W 122°33'0 0.0
2014-Oct-27 11:04N 48°36' W 122°33'0 0.1
2014-Oct-27 10:28N 48°36' W 122°33'0 0.0
2014-Oct-27 09:22N 48°36' W 122°33'0 0.0
2014-Oct-27 08:19N 48°36' W 122°33'0 0.0
2014-Oct-27 07:22N 48°36' W 122°33'0 0.0
2014-Oct-27 06:31N 48°36' W 122°33'0 0.0
2014-Oct-27 04:19N 48°36' W 122°33'0 0.1
2014-Oct-27 03:31N 48°36' W 122°33'0 0.1
2014-Oct-27 02:13N 48°36' W 122°33'0 0.1
2014-Oct-27 01:28N 48°36' W 122°33'0 0.1
2014-Oct-27 00:34N 48°36' W 122°32'0 0.1
2014-Oct-26 23:28N 48°36' W 122°32'0 0.1
2014-Oct-26 22:04N 48°36' W 122°32'0 0.0
2014-Oct-26 21:13N 48°36' W 122°32'0 0.1
2014-Oct-26 20:28N 48°36' W 122°32'0 0.1
2014-Oct-26 19:28N 48°36' W 122°32'0 0.3
2014-Oct-26 18:28N 48°36' W 122°33'0 0.0
2014-Oct-26 17:28N 48°36' W 122°33'0 0.0
2014-Oct-26 16:22N 48°36' W 122°33'0 0.0
2014-Oct-26 15:28N 48°36' W 122°33'0 0.1
2014-Oct-26 14:28N 48°37' W 122°33'0 0.2
2014-Oct-26 13:31N 48°36' W 122°32'0 0.1
2014-Oct-26 12:28N 48°36' W 122°32'0 0.1
2014-Oct-26 11:31N 48°36' W 122°32'0 0.1
2014-Oct-26 10:31N 48°36' W 122°32'0 0.0
2014-Oct-26 09:25N 48°36' W 122°32'0 0.0
2014-Oct-26 08:28N 48°36' W 122°32'0 0.0
2014-Oct-26 07:28N 48°36' W 122°32'0 0.0
2014-Oct-26 06:28N 48°36' W 122°32'0 0.0
2014-Oct-26 05:22N 48°36' W 122°32'0 0.0
2014-Oct-26 04:28N 48°36' W 122°32'0 0.1
2014-Oct-26 03:16N 48°36' W 122°33'0 0.2
2014-Oct-26 02:25N 48°36' W 122°33'0 0.0
2014-Oct-26 01:28N 48°36' W 122°33'0 0.2
2014-Oct-25 23:28N 48°36' W 122°32'0 0.0
2014-Oct-25 22:28N 48°36' W 122°32'0 0.1
2014-Oct-25 21:31N 48°36' W 122°33'0 0.3
2014-Oct-25 20:28N 48°36' W 122°33'0 0.1
2014-Oct-25 19:22N 48°36' W 122°33'0 0.1
2014-Oct-25 18:31N 48°36' W 122°33'0 0.0
2014-Oct-25 17:31N 48°36' W 122°33'0 0.1
2014-Oct-25 16:28N 48°36' W 122°33'0 0.2
2014-Oct-25 15:31N 48°36' W 122°33'0 0.0
2014-Oct-25 14:31N 48°36' W 122°33'0 0.0
2014-Oct-25 13:31N 48°36' W 122°33'0 0.0
2014-Oct-25 12:22N 48°36' W 122°33'0 0.0
2014-Oct-25 11:28N 48°36' W 122°33'0 0.0
2014-Oct-25 10:28N 48°36' W 122°33'0 0.0
2014-Oct-25 09:28N 48°36' W 122°32'0 0.0
2014-Oct-25 08:28N 48°36' W 122°33'0 0.2
2014-Oct-25 07:22N 48°36' W 122°33'0 0.0
2014-Oct-25 06:28N 48°36' W 122°33'0 0.0
2014-Oct-25 05:28N 48°36' W 122°33'0 0.0
2014-Oct-25 04:22N 48°36' W 122°33'0 0.1
2014-Oct-25 03:31N 48°36' W 122°33'0 0.0
2014-Oct-25 02:28N 48°36' W 122°33'0 0.0
2014-Oct-25 01:25N 48°36' W 122°33'0 0.0
2014-Oct-25 00:28N 48°36' W 122°33'0 0.0
2014-Oct-24 23:31N 48°36' W 122°33'0 0.0
2014-Oct-24 22:31N 48°36' W 122°33'0 0.1
2014-Oct-24 21:25N 48°36' W 122°32'0 0.1
2014-Oct-24 20:31N 48°36' W 122°33'0 0.1
2014-Oct-24 19:28N 48°36' W 122°33'0 0.0
2014-Oct-24 18:28N 48°36' W 122°33'0 0.0
2014-Oct-24 17:28N 48°36' W 122°33'0 0.1
2014-Oct-24 16:16N 48°36' W 122°33'0 0.1
2014-Oct-24 15:28N 48°36' W 122°33'0 0.0
2014-Oct-24 14:28N 48°36' W 122°33'0 0.0
2014-Oct-24 13:22N 48°36' W 122°33'0 0.1
2014-Oct-24 12:22N 48°36' W 122°33'0 0.0
2014-Oct-24 11:31N 48°36' W 122°33'0 0.0
2014-Oct-24 10:28N 48°36' W 122°33'0 0.1
2014-Oct-24 09:19N 48°36' W 122°33'0 0.0
2014-Oct-24 08:28N 48°36' W 122°33'0 0.1
2014-Oct-24 07:22N 48°36' W 122°33'0 0.0
2014-Oct-24 06:28N 48°36' W 122°33'0 0.1
2014-Oct-24 05:25N 48°36' W 122°33'0 0.0
2014-Oct-24 04:28N 48°36' W 122°33'0 0.0
2014-Oct-24 03:28N 48°36' W 122°33'0 0.2
2014-Oct-24 02:16N 48°36' W 122°33'0 0.2
2014-Oct-24 01:28N 48°36' W 122°32'0 0.1
2014-Oct-24 00:28N 48°36' W 122°32'0 0.2
2014-Oct-23 23:31N 48°36' W 122°32'0 0.0
2014-Oct-23 22:22N 48°36' W 122°32'0 0.1
2014-Oct-23 21:25N 48°37' W 122°33'0 0.0
2014-Oct-23 20:28N 48°36' W 122°32'0 0.1
2014-Oct-23 19:24N 48°37' W 122°33'0 0.0
2014-Oct-23 18:30N 48°36' W 122°33'0 0.0
2014-Oct-23 17:30N 48°36' W 122°33'0 0.0
2014-Oct-23 16:24N 48°36' W 122°33'0 0.0
2014-Oct-23 15:30N 48°36' W 122°33'0 0.0
2014-Oct-23 14:30N 48°36' W 122°33'0 0.1
2014-Oct-23 13:24N 48°36' W 122°33'0 0.2
2014-Oct-23 12:30N 48°36' W 122°32'0 0.0
2014-Oct-23 11:30N 48°36' W 122°33'0 0.0
2014-Oct-23 10:30N 48°36' W 122°32'0 0.0
2014-Oct-23 09:18N 48°36' W 122°32'0 0.1
2014-Oct-23 08:30N 48°36' W 122°32'0 0.1
2014-Oct-23 07:18N 48°36' W 122°33'0 0.1
2014-Oct-23 06:30N 48°37' W 122°33'0 0.1
2014-Oct-23 05:30N 48°36' W 122°33'0 0.0
2014-Oct-23 04:24N 48°36' W 122°33'0 0.0
2014-Oct-23 03:24N 48°36' W 122°33'0 0.0
2014-Oct-23 02:30N 48°36' W 122°33'0 0.0
2014-Oct-23 01:24N 48°36' W 122°33'0 0.0
2014-Oct-23 00:18N 48°36' W 122°33'0 0.0
2014-Oct-22 23:30N 48°36' W 122°33'0 0.0
2014-Oct-22 20:30N 48°37' W 122°33'0 0.0
2014-Oct-22 17:22N 48°36' W 122°33'0 0.0
2014-Oct-22 12:19N 48°36' W 122°33'0 0.0
2014-Oct-22 09:28N 48°36' W 122°33'0 0.0
2014-Oct-22 08:28N 48°36' W 122°33'0 0.0
2014-Oct-22 07:25N 48°36' W 122°33'0 0.0
2014-Oct-22 06:31N 48°36' W 122°33'0 0.0
2014-Oct-22 05:28N 48°36' W 122°33'0 0.1
2014-Oct-22 04:28N 48°36' W 122°33'0 0.0
2014-Oct-22 03:28N 48°36' W 122°33'0 0.0
2014-Oct-22 02:31N 48°36' W 122°33'0 0.0
2014-Oct-22 01:31N 48°36' W 122°33'0 0.0
2014-Oct-22 00:22N 48°36' W 122°33'0 0.1
2014-Oct-21 23:28N 48°37' W 122°33'0 0.0
2014-Oct-21 22:31N 48°37' W 122°33'0 0.0
2014-Oct-21 21:31N 48°37' W 122°33'0 0.0
2014-Oct-21 20:33N 48°36' W 122°33'0 0.0
2014-Oct-21 19:33N 48°36' W 122°33'0 0.0
2014-Oct-21 18:33N 48°36' W 122°33'0 0.0
2014-Oct-21 17:30N 48°36' W 122°33'0 0.0
2014-Oct-21 16:27N 48°36' W 122°33'0 0.0
2014-Oct-21 15:33N 48°36' W 122°33'0 0.0
2014-Oct-21 14:27N 48°36' W 122°33'0 0.0
2014-Oct-21 13:33N 48°36' W 122°33'0 0.0
2014-Oct-21 12:30N 48°36' W 122°33'0 0.0
2014-Oct-21 11:24N 48°36' W 122°33'0 0.0
2014-Oct-21 10:27N 48°36' W 122°33'0 0.0
2014-Oct-21 09:33N 48°36' W 122°33'0 0.1
2014-Oct-21 08:33N 48°36' W 122°33'0 0.0
2014-Oct-21 07:33N 48°36' W 122°33'0 0.0
2014-Oct-21 06:33N 48°36' W 122°33'0 0.0
2014-Oct-21 05:30N 48°36' W 122°33'0 0.0
2014-Oct-21 04:33N 48°36' W 122°33'0 0.0
2014-Oct-21 03:27N 48°36' W 122°33'0 0.0
2014-Oct-21 02:24N 48°36' W 122°33'0 0.0
2014-Oct-21 01:30N 48°36' W 122°33'0 0.1
2014-Oct-21 00:33N 48°36' W 122°33'0 0.1
2014-Oct-20 23:30N 48°36' W 122°33'0 0.0
2014-Oct-20 22:33N 48°36' W 122°33'0 0.0
2014-Oct-20 21:33N 48°36' W 122°32'0 0.1
2014-Oct-20 20:33N 48°36' W 122°33'0 0.0
2014-Oct-20 19:34N 48°36' W 122°33'0 0.1
2014-Oct-20 18:28N 48°36' W 122°33'0 0.0
2014-Oct-20 17:31N 48°36' W 122°33'0 0.1
2014-Oct-20 16:33N 48°36' W 122°33'  
Track history (hours):
 
Tides and Currents Weather Stations Pressure Air Temp Water Temp Dewpoint Dewpoint Depression Visibility Wind Speed Wind Dir Waves Ship Positions

Cape Bata

Last reported at 2014-Oct-30 16:29 UTC. Time now 2014-Oct-31 09:49 UTC.
Position N 46°47' W 125°30'.

Length 274 m; draft 8.7 m.

Type: Tanker. MMSI: 538090162.

Date/timePositionNaut miles runAvg speedWind from/ knotsBaromVisibWave heightAir tempDewpointWater temp
2014-Oct-30 16:29N 46°47' W 125°30'8712.5
2014-Oct-30 09:28N 48°14' W 125°15'1212.9
2014-Oct-30 08:32N 48°25' W 125°07'1212.0
2014-Oct-30 07:33N 48°31' W 124°52'1313.2
2014-Oct-30 06:33N 48°28' W 124°33'1414.4
2014-Oct-30 05:33N 48°22' W 124°13'1514.5
2014-Oct-30 04:32N 48°17' W 123°52'1413.6
2014-Oct-30 03:32N 48°15' W 123°31'8 8.5
2014-Oct-30 02:33N 48°08' W 123°25'0 0.3
2014-Oct-30 01:33N 48°08' W 123°25'0 0.0
2014-Oct-30 00:30N 48°08' W 123°25'0 0.0
2014-Oct-29 23:33N 48°08' W 123°25'0 0.0
2014-Oct-29 22:33N 48°08' W 123°25'0 0.0
2014-Oct-29 21:30N 48°08' W 123°25'0 0.0
2014-Oct-29 20:30N 48°08' W 123°25'0 0.2
2014-Oct-29 19:33N 48°08' W 123°25'7 7.3
2014-Oct-29 18:33N 48°11' W 123°16'1414.6
2014-Oct-29 17:33N 48°20' W 122°59'1313.1
2014-Oct-29 16:33N 48°29' W 122°44'1111.3
2014-Oct-29 15:33N 48°41' W 122°44'1111.0
2014-Oct-29 14:33N 48°52' W 122°46'0 0.1
2014-Oct-29 13:32N 48°52' W 122°45'1 0.0
2014-Oct-28 08:33N 48°50' W 122°45'6 5.9
2014-Oct-28 07:33N 48°45' W 122°45'6 5.8
2014-Oct-28 06:33N 48°40' W 122°41'6 6.5
2014-Oct-28 05:34N 48°36' W 122°33'0 0.1
2014-Oct-28 04:16N 48°36' W 122°33'0 0.0
2014-Oct-28 03:31N 48°36' W 122°33'0 0.0
2014-Oct-28 02:22N 48°36' W 122°33'0 0.0
2014-Oct-28 01:28N 48°36' W 122°33'0 0.0
2014-Oct-28 00:22N 48°36' W 122°33'0 0.0
2014-Oct-27 23:28N 48°36' W 122°33'0 0.0
2014-Oct-27 22:22N 48°36' W 122°33'0 0.0
2014-Oct-27 21:31N 48°36' W 122°33'0 0.1
2014-Oct-27 20:31N 48°36' W 122°33'0 0.0
2014-Oct-27 19:28N 48°36' W 122°33'0 0.0
2014-Oct-27 18:31N 48°36' W 122°33'0 0.0
2014-Oct-27 17:31N 48°36' W 122°33'0 0.0
2014-Oct-27 16:28N 48°36' W 122°33'0 0.0
2014-Oct-27 15:22N 48°36' W 122°33'0 0.1
2014-Oct-27 14:28N 48°36' W 122°33'0 0.1
2014-Oct-27 13:28N 48°36' W 122°33'0 0.0
2014-Oct-27 12:22N 48°36' W 122°33'0 0.0
2014-Oct-27 11:04N 48°36' W 122°33'0 0.1
2014-Oct-27 10:28N 48°36' W 122°33'0 0.0
2014-Oct-27 09:22N 48°36' W 122°33'0 0.0
2014-Oct-27 08:19N 48°36' W 122°33'0 0.0
2014-Oct-27 07:22N 48°36' W 122°33'0 0.0
2014-Oct-27 06:31N 48°36' W 122°33'0 0.0
2014-Oct-27 04:19N 48°36' W 122°33'0 0.1
2014-Oct-27 03:31N 48°36' W 122°33'0 0.1
2014-Oct-27 02:13N 48°36' W 122°33'0 0.1
2014-Oct-27 01:28N 48°36' W 122°33'0 0.1
2014-Oct-27 00:34N 48°36' W 122°32'0 0.1
2014-Oct-26 23:28N 48°36' W 122°32'0 0.1
2014-Oct-26 22:04N 48°36' W 122°32'0 0.0
2014-Oct-26 21:13N 48°36' W 122°32'0 0.1
2014-Oct-26 20:28N 48°36' W 122°32'0 0.1
2014-Oct-26 19:28N 48°36' W 122°32'0 0.3
2014-Oct-26 18:28N 48°36' W 122°33'0 0.0
2014-Oct-26 17:28N 48°36' W 122°33'0 0.0
2014-Oct-26 16:22N 48°36' W 122°33'0 0.0
2014-Oct-26 15:28N 48°36' W 122°33'0 0.1
2014-Oct-26 14:28N 48°37' W 122°33'0 0.2
2014-Oct-26 13:31N 48°36' W 122°32'0 0.1
2014-Oct-26 12:28N 48°36' W 122°32'0 0.1
2014-Oct-26 11:31N 48°36' W 122°32'0 0.1
2014-Oct-26 10:31N 48°36' W 122°32'0 0.0
2014-Oct-26 09:25N 48°36' W 122°32'0 0.0
2014-Oct-26 08:28N 48°36' W 122°32'0 0.0
2014-Oct-26 07:28N 48°36' W 122°32'0 0.0
2014-Oct-26 06:28N 48°36' W 122°32'0 0.0
2014-Oct-26 05:22N 48°36' W 122°32'0 0.0
2014-Oct-26 04:28N 48°36' W 122°32'0 0.1
2014-Oct-26 03:16N 48°36' W 122°33'0 0.2
2014-Oct-26 02:25N 48°36' W 122°33'0 0.0
2014-Oct-26 01:28N 48°36' W 122°33'0 0.2
2014-Oct-25 23:28N 48°36' W 122°32'0 0.0
2014-Oct-25 22:28N 48°36' W 122°32'0 0.1
2014-Oct-25 21:31N 48°36' W 122°33'0 0.3
2014-Oct-25 20:28N 48°36' W 122°33'0 0.1
2014-Oct-25 19:22N 48°36' W 122°33'0 0.1
2014-Oct-25 18:31N 48°36' W 122°33'0 0.0
2014-Oct-25 17:31N 48°36' W 122°33'0 0.1
2014-Oct-25 16:28N 48°36' W 122°33'0 0.2
2014-Oct-25 15:31N 48°36' W 122°33'0 0.0
2014-Oct-25 14:31N 48°36' W 122°33'0 0.0
2014-Oct-25 13:31N 48°36' W 122°33'0 0.0
2014-Oct-25 12:22N 48°36' W 122°33'0 0.0
2014-Oct-25 11:28N 48°36' W 122°33'0 0.0
2014-Oct-25 10:28N 48°36' W 122°33'0 0.0
2014-Oct-25 09:28N 48°36' W 122°32'0 0.0
2014-Oct-25 08:28N 48°36' W 122°33'0 0.2
2014-Oct-25 07:22N 48°36' W 122°33'0 0.0
2014-Oct-25 06:28N 48°36' W 122°33'0 0.0
2014-Oct-25 05:28N 48°36' W 122°33'0 0.0
2014-Oct-25 04:22N 48°36' W 122°33'0 0.1
2014-Oct-25 03:31N 48°36' W 122°33'0 0.0
2014-Oct-25 02:28N 48°36' W 122°33'0 0.0
2014-Oct-25 01:25N 48°36' W 122°33'0 0.0
2014-Oct-25 00:28N 48°36' W 122°33'0 0.0
2014-Oct-24 23:31N 48°36' W 122°33'0 0.0
2014-Oct-24 22:31N 48°36' W 122°33'0 0.1
2014-Oct-24 21:25N 48°36' W 122°32'0 0.1
2014-Oct-24 20:31N 48°36' W 122°33'0 0.1
2014-Oct-24 19:28N 48°36' W 122°33'0 0.0
2014-Oct-24 18:28N 48°36' W 122°33'0 0.0
2014-Oct-24 17:28N 48°36' W 122°33'0 0.1
2014-Oct-24 16:16N 48°36' W 122°33'0 0.1
2014-Oct-24 15:28N 48°36' W 122°33'0 0.0
2014-Oct-24 14:28N 48°36' W 122°33'0 0.0
2014-Oct-24 13:22N 48°36' W 122°33'0 0.1
2014-Oct-24 12:22N 48°36' W 122°33'0 0.0
2014-Oct-24 11:31N 48°36' W 122°33'0 0.0
2014-Oct-24 10:28N 48°36' W 122°33'0 0.1
2014-Oct-24 09:19N 48°36' W 122°33'0 0.0
2014-Oct-24 08:28N 48°36' W 122°33'0 0.1
2014-Oct-24 07:22N 48°36' W 122°33'0 0.0
2014-Oct-24 06:28N 48°36' W 122°33'0 0.1
2014-Oct-24 05:25N 48°36' W 122°33'0 0.0
2014-Oct-24 04:28N 48°36' W 122°33'0 0.0
2014-Oct-24 03:28N 48°36' W 122°33'0 0.2
2014-Oct-24 02:16N 48°36' W 122°33'0 0.2
2014-Oct-24 01:28N 48°36' W 122°32'0 0.1
2014-Oct-24 00:28N 48°36' W 122°32'0 0.2
2014-Oct-23 23:31N 48°36' W 122°32'0 0.0
2014-Oct-23 22:22N 48°36' W 122°32'0 0.1
2014-Oct-23 21:25N 48°37' W 122°33'0 0.0
2014-Oct-23 20:28N 48°36' W 122°32'0 0.1
2014-Oct-23 19:24N 48°37' W 122°33'0 0.0
2014-Oct-23 18:30N 48°36' W 122°33'0 0.0
2014-Oct-23 17:30N 48°36' W 122°33'0 0.0
2014-Oct-23 16:24N 48°36' W 122°33'0 0.0
2014-Oct-23 15:30N 48°36' W 122°33'0 0.0
2014-Oct-23 14:30N 48°36' W 122°33'0 0.1
2014-Oct-23 13:24N 48°36' W 122°33'0 0.2
2014-Oct-23 12:30N 48°36' W 122°32'0 0.0
2014-Oct-23 11:30N 48°36' W 122°33'0 0.0
2014-Oct-23 10:30N 48°36' W 122°32'0 0.0
2014-Oct-23 09:18N 48°36' W 122°32'0 0.1
2014-Oct-23 08:30N 48°36' W 122°32'0 0.1
2014-Oct-23 07:18N 48°36' W 122°33'0 0.1
2014-Oct-23 06:30N 48°37' W 122°33'0 0.1
2014-Oct-23 05:30N 48°36' W 122°33'0 0.0
2014-Oct-23 04:24N 48°36' W 122°33'0 0.0
2014-Oct-23 03:24N 48°36' W 122°33'0 0.0
2014-Oct-23 02:30N 48°36' W 122°33'0 0.0
2014-Oct-23 01:24N 48°36' W 122°33'0 0.0
2014-Oct-23 00:18N 48°36' W 122°33'0 0.0
2014-Oct-22 23:30N 48°36' W 122°33'0 0.0
2014-Oct-22 20:30N 48°37' W 122°33'0 0.0
2014-Oct-22 17:22N 48°36' W 122°33'0 0.0
2014-Oct-22 12:19N 48°36' W 122°33'0 0.0
2014-Oct-22 09:28N 48°36' W 122°33'0 0.0
2014-Oct-22 08:28N 48°36' W 122°33'0 0.0
2014-Oct-22 07:25N 48°36' W 122°33'0 0.0
2014-Oct-22 06:31N 48°36' W 122°33'0 0.0
2014-Oct-22 05:28N 48°36' W 122°33'0 0.1
2014-Oct-22 04:28N 48°36' W 122°33'0 0.0
2014-Oct-22 03:28N 48°36' W 122°33'0 0.0
2014-Oct-22 02:31N 48°36' W 122°33'0 0.0
2014-Oct-22 01:31N 48°36' W 122°33'0 0.0
2014-Oct-22 00:22N 48°36' W 122°33'0 0.1
2014-Oct-21 23:28N 48°37' W 122°33'0 0.0
2014-Oct-21 22:31N 48°37' W 122°33'0 0.0
2014-Oct-21 21:31N 48°37' W 122°33'0 0.0
2014-Oct-21 20:33N 48°36' W 122°33'0 0.0
2014-Oct-21 19:33N 48°36' W 122°33'0 0.0
2014-Oct-21 18:33N 48°36' W 122°33'0 0.0
2014-Oct-21 17:30N 48°36' W 122°33'0 0.0
2014-Oct-21 16:27N 48°36' W 122°33'0 0.0
2014-Oct-21 15:33N 48°36' W 122°33'0 0.0
2014-Oct-21 14:27N 48°36' W 122°33'0 0.0
2014-Oct-21 13:33N 48°36' W 122°33'0 0.0
2014-Oct-21 12:30N 48°36' W 122°33'0 0.0
2014-Oct-21 11:24N 48°36' W 122°33'0 0.0
2014-Oct-21 10:27N 48°36' W 122°33'0 0.0
2014-Oct-21 09:33N 48°36' W 122°33'0 0.1
2014-Oct-21 08:33N 48°36' W 122°33'0 0.0
2014-Oct-21 07:33N 48°36' W 122°33'0 0.0
2014-Oct-21 06:33N 48°36' W 122°33'0 0.0
2014-Oct-21 05:30N 48°36' W 122°33'0 0.0
2014-Oct-21 04:33N 48°36' W 122°33'0 0.0
2014-Oct-21 03:27N 48°36' W 122°33'0 0.0
2014-Oct-21 02:24N 48°36' W 122°33'0 0.0
2014-Oct-21 01:30N 48°36' W 122°33'0 0.1
2014-Oct-21 00:33N 48°36' W 122°33'0 0.1
2014-Oct-20 23:30N 48°36' W 122°33'0 0.0
2014-Oct-20 22:33N 48°36' W 122°33'0 0.0
2014-Oct-20 21:33N 48°36' W 122°32'0 0.1
2014-Oct-20 20:33N 48°36' W 122°33'0 0.0
2014-Oct-20 19:34N 48°36' W 122°33'0 0.1
2014-Oct-20 18:28N 48°36' W 122°33'0 0.0
2014-Oct-20 17:31N 48°36' W 122°33'0 0.1
2014-Oct-20 16:33N 48°36' W 122°33'  

Dump ship's entire track history